Time;durP1;ratioP1;P1;durP2;ratioP2;P2;SDS_P1;SDS_P2;PMS_P1;PMS_P2;Temp;Humidity;BMP_temperature;BMP_pressure;BME280_temperature;BME280_humidity;BME280_pressure;Samples;Min_cycle;Max_cycle;Signal;HPM_P1;HPM_P2
2023/09/11 00:01:23;;;;;;;30.67;21.47;;;20.10;90.50;;;;;;5037353;28;20041;-67
2023/09/11 00:03:49;;;;;;;23.63;20.07;;;20.10;90.40;;;;;;5060735;28;20049;-67
2023/09/11 00:06:15;;;;;;;29.00;23.27;;;20.10;90.70;;;;;;5038978;28;20049;-67
2023/09/11 00:08:41;;;;;;;27.53;20.97;;;20.10;90.80;;;;;;5029369;28;20041;-67
2023/09/11 00:11:07;;;;;;;31.47;21.77;;;20.10;91.10;;;;;;5039891;28;20488;-67
2023/09/11 00:13:33;;;;;;;26.13;21.67;;;20.10;91.10;;;;;;5026233;28;20044;-67
2023/09/11 00:15:59;;;;;;;29.00;20.90;;;20.10;90.90;;;;;;5046165;28;20539;-67
2023/09/11 00:18:25;;;;;;;24.67;21.47;;;20.00;90.90;;;;;;5038384;28;20102;-67
2023/09/11 00:20:51;;;;;;;29.80;22.73;;;20.00;90.60;;;;;;5036954;28;20037;-67
2023/09/11 00:23:17;;;;;;;30.23;22.93;;;20.00;91.10;;;;;;5036424;28;20041;-67
2023/09/11 00:25:43;;;;;;;32.60;22.27;;;20.00;91.20;;;;;;5031406;28;20383;-67
2023/09/11 00:28:09;;;;;;;27.47;22.07;;;20.00;90.90;;;;;;5041450;28;20045;-67
2023/09/11 00:30:38;;;;;;;28.30;22.30;;;19.90;91.10;;;;;;5026659;28;20047;-67
2023/09/11 00:33:04;;;;;;;29.50;22.13;;;19.90;91.00;;;;;;5062650;28;20041;-67
2023/09/11 00:35:30;;;;;;;31.57;23.90;;;19.90;91.10;;;;;;5024010;28;20120;-67
2023/09/11 00:37:56;;;;;;;29.07;22.10;;;19.90;91.20;;;;;;5041298;28;20120;-67
2023/09/11 00:40:22;;;;;;;29.57;22.90;;;19.90;91.30;;;;;;5035890;28;20065;-67
2023/09/11 00:42:47;;;;;;;26.90;21.90;;;19.80;91.40;;;;;;5039518;28;20045;-67
2023/09/11 00:45:13;;;;;;;26.90;22.10;;;19.80;91.70;;;;;;5036224;28;20052;-67
2023/09/11 00:47:42;;;;;;;25.23;21.23;;;19.80;91.70;;;;;;5035012;28;20132;-67
2023/09/11 00:50:10;;;;;;;29.37;23.30;;;19.80;91.50;;;;;;5033261;28;20053;-67
2023/09/11 00:52:36;;;;;;;29.03;22.50;;;19.80;91.60;;;;;;5035834;28;20109;-67
2023/09/11 00:55:03;;;;;;;26.53;22.30;;;19.80;91.90;;;;;;5035794;28;20099;-67
2023/09/11 00:57:29;;;;;;;27.43;23.37;;;19.80;91.90;;;;;;5037314;28;20132;-67
2023/09/11 00:59:55;;;;;;;25.30;19.83;;;19.80;91.90;;;;;;5018698;28;20169;-67
2023/09/11 01:02:21;;;;;;;33.27;23.90;;;19.80;91.90;;;;;;5021069;28;20052;-67
2023/09/11 01:04:48;;;;;;;25.47;21.90;;;19.80;91.60;;;;;;5035263;28;20060;-67
2023/09/11 01:07:14;;;;;;;27.77;21.63;;;19.80;91.70;;;;;;5036271;28;20581;-67
2023/09/11 01:09:41;;;;;;;30.00;22.27;;;19.80;91.70;;;;;;5015681;28;20408;-67
2023/09/11 01:12:07;;;;;;;28.03;22.60;;;19.70;91.60;;;;;;5035844;28;20049;-67
2023/09/11 01:14:34;;;;;;;27.93;21.63;;;19.70;91.90;;;;;;5062170;28;20037;-67
2023/09/11 01:17:06;;;;;;;24.20;21.80;;;19.70;91.80;;;;;;5043576;28;20044;-67
2023/09/11 01:19:56;;;;;;;29.07;21.70;;;19.70;91.70;;;;;;5038533;28;20046;-67
2023/09/11 01:23:08;;;;;;;25.60;22.47;;;19.70;91.90;;;;;;5042278;28;20507;-67
2023/09/11 01:25:52;;;;;;;26.73;21.57;;;19.60;91.90;;;;;;5032770;28;20166;-67
2023/09/11 01:28:48;;;;;;;28.80;21.63;;;19.70;93.00;;;;;;5038830;28;20548;-67
2023/09/11 01:31:16;;;;;;;27.33;23.13;;;19.60;92.30;;;;;;5032170;28;20096;-67
2023/09/11 01:33:41;;;;;;;26.13;23.33;;;19.60;92.40;;;;;;5036482;28;20049;-67
2023/09/11 01:36:07;;;;;;;27.13;22.53;;;19.60;92.40;;;;;;5032199;28;20068;-67
2023/09/11 01:38:33;;;;;;;34.23;23.97;;;19.60;92.20;;;;;;5047783;28;20041;-67
2023/09/11 01:41:01;;;;;;;28.80;23.43;;;19.60;92.30;;;;;;5029994;28;20043;-67
2023/09/11 01:43:31;;;;;;;28.97;21.80;;;19.60;92.30;;;;;;5065893;28;20151;-67
2023/09/11 01:45:58;;;;;;;30.87;22.03;;;19.60;92.50;;;;;;5043096;28;20132;-67
2023/09/11 01:48:25;;;;;;;27.97;21.70;;;19.60;92.50;;;;;;5025009;28;20041;-67
2023/09/11 01:50:51;;;;;;;28.70;21.50;;;19.60;92.40;;;;;;5043373;28;20443;-67
2023/09/11 01:53:17;;;;;;;26.57;20.30;;;19.60;92.50;;;;;;5036684;28;20044;-67
2023/09/11 01:55:43;;;;;;;25.50;20.83;;;19.50;92.40;;;;;;5043961;28;20099;-67
2023/09/11 01:58:08;;;;;;;29.07;22.70;;;19.50;92.40;;;;;;5039457;28;20068;-67
2023/09/11 02:00:34;;;;;;;25.27;21.10;;;19.50;92.40;;;;;;5022983;28;20033;-67
2023/09/11 02:03:01;;;;;;;27.67;20.90;;;19.50;92.60;;;;;;5026254;28;20041;-67
2023/09/11 02:05:27;;;;;;;31.03;24.37;;;19.50;92.80;;;;;;5020401;28;20053;-67
2023/09/11 02:07:52;;;;;;;30.97;23.77;;;19.50;92.70;;;;;;5041350;28;20036;-67
2023/09/11 02:10:18;;;;;;;34.03;23.37;;;19.50;92.90;;;;;;5030574;28;20052;-67
2023/09/11 02:12:44;;;;;;;32.50;22.93;;;19.50;93.00;;;;;;5038209;28;20515;-67
2023/09/11 02:15:10;;;;;;;25.60;22.97;;;19.50;93.20;;;;;;5034731;28;20034;-67
2023/09/11 02:17:35;;;;;;;34.13;22.77;;;19.60;93.30;;;;;;5045325;28;20075;-67
2023/09/11 02:20:03;;;;;;;28.33;22.27;;;19.60;93.20;;;;;;5043915;28;20084;-67
2023/09/11 02:22:29;;;;;;;25.93;23.33;;;19.60;93.10;;;;;;5024603;28;20049;-67
2023/09/11 02:24:54;;;;;;;24.80;21.43;;;19.60;93.20;;;;;;5036312;28;20398;-67
2023/09/11 02:27:20;;;;;;;32.73;27.67;;;19.70;92.90;;;;;;5040466;28;20061;-67
2023/09/11 02:29:46;;;;;;;29.90;26.57;;;19.70;92.80;;;;;;5042538;28;20493;-67
2023/09/11 02:32:11;;;;;;;30.73;25.20;;;19.70;92.70;;;;;;5033251;28;20048;-67
2023/09/11 02:34:37;;;;;;;30.37;26.87;;;19.80;92.70;;;;;;5033984;28;20197;-67
2023/09/11 02:37:03;;;;;;;33.03;21.37;;;19.80;92.50;;;;;;5025891;28;20178;-67
2023/09/11 02:39:29;;;;;;;30.00;22.97;;;19.90;92.50;;;;;;5038519;28;20050;-67
2023/09/11 02:41:54;;;;;;;27.10;22.00;;;19.90;92.30;;;;;;5043796;28;20098;-67
2023/09/11 02:44:20;;;;;;;27.33;23.13;;;19.90;92.50;;;;;;5032331;28;20120;-67
2023/09/11 02:46:46;;;;;;;25.83;21.53;;;19.90;92.50;;;;;;5036929;28;20053;-67
2023/09/11 02:49:11;;;;;;;30.53;24.93;;;20.00;92.50;;;;;;5035668;28;20071;-67
2023/09/11 02:51:37;;;;;;;27.80;22.90;;;20.00;92.50;;;;;;5026352;28;20072;-67
2023/09/11 02:54:03;;;;;;;25.37;22.33;;;20.00;92.50;;;;;;5038915;28;20049;-67
2023/09/11 02:56:28;;;;;;;37.07;28.00;;;20.00;92.20;;;;;;5016451;28;20034;-67
2023/09/11 02:58:54;;;;;;;30.20;27.13;;;20.00;92.30;;;;;;5049556;28;20045;-67
2023/09/11 03:01:20;;;;;;;31.60;26.73;;;20.00;92.20;;;;;;5034246;28;20099;-67
2023/09/11 03:03:46;;;;;;;33.73;30.27;;;19.90;92.20;;;;;;5036847;28;20041;-67
2023/09/11 03:06:12;;;;;;;34.73;29.93;;;19.90;92.20;;;;;;5044569;28;20059;-67
2023/09/11 03:08:37;;;;;;;33.93;30.70;;;19.90;92.20;;;;;;5032841;28;20044;-67
2023/09/11 03:11:09;;;;;;;32.93;29.43;;;19.90;92.30;;;;;;5034952;28;20052;-67
2023/09/11 03:13:35;;;;;;;30.17;26.37;;;19.90;92.40;;;;;;5038512;28;20132;-67
2023/09/11 03:16:11;;;;;;;32.27;28.83;;;19.90;92.30;;;;;;5018538;28;20736;-67
2023/09/11 03:18:37;;;;;;;33.73;30.30;;;19.90;92.40;;;;;;5044305;28;20143;-67
2023/09/11 03:21:04;;;;;;;34.80;30.50;;;19.90;92.20;;;;;;5039095;28;20080;-67
2023/09/11 03:23:30;;;;;;;32.20;29.00;;;19.90;92.50;;;;;;5048843;28;20699;-67
2023/09/11 03:25:56;;;;;;;33.07;29.50;;;19.90;92.60;;;;;;5035659;28;20048;-67
2023/09/11 03:28:25;;;;;;;33.87;30.73;;;19.90;92.30;;;;;;5079067;28;20041;-67
2023/09/11 03:30:51;;;;;;;33.90;30.40;;;19.90;92.60;;;;;;5034938;28;20049;-67
2023/09/11 03:33:17;;;;;;;33.20;29.87;;;19.90;92.50;;;;;;5074171;28;20039;-67
2023/09/11 03:35:48;;;;;;;32.10;28.90;;;19.90;92.50;;;;;;5018346;28;20048;-67
2023/09/11 03:38:14;;;;;;;31.90;28.67;;;19.90;92.40;;;;;;5038626;28;20190;-69
2023/09/11 03:40:41;;;;;;;30.70;27.60;;;19.90;92.50;;;;;;5038051;28;20052;-69
2023/09/11 03:43:07;;;;;;;32.77;29.40;;;19.90;92.40;;;;;;5042796;28;20500;-69
2023/09/11 03:45:33;;;;;;;33.67;28.33;;;19.90;92.30;;;;;;5054999;28;20049;-69
2023/09/11 03:47:59;;;;;;;34.50;30.73;;;19.90;92.60;;;;;;5041985;28;20063;-69
2023/09/11 03:50:24;;;;;;;32.53;29.27;;;19.90;92.70;;;;;;5047709;28;20040;-69
2023/09/11 03:52:50;;;;;;;32.93;29.87;;;19.90;92.50;;;;;;5043619;28;20040;-69
2023/09/11 03:55:16;;;;;;;32.70;29.53;;;19.90;92.50;;;;;;5045234;28;20115;-69
2023/09/11 03:57:42;;;;;;;33.57;30.03;;;20.00;92.50;;;;;;5041527;28;20044;-70
2023/09/11 04:00:08;;;;;;;35.43;31.30;;;20.00;92.40;;;;;;5034710;28;20797;-69
2023/09/11 04:02:34;;;;;;;35.20;31.50;;;20.00;92.70;;;;;;5040490;28;20127;-69
2023/09/11 04:05:00;;;;;;;36.67;31.57;;;20.10;92.50;;;;;;5024515;28;20124;-69
2023/09/11 04:07:26;;;;;;;31.47;28.40;;;20.10;92.60;;;;;;5041246;28;20041;-69
2023/09/11 04:09:52;;;;;;;36.33;28.47;;;20.10;92.80;;;;;;5031107;28;20095;-69
2023/09/11 04:12:17;;;;;;;37.03;33.17;;;20.10;92.40;;;;;;5039400;28;20040;-69
2023/09/11 04:14:43;;;;;;;37.60;33.87;;;20.10;92.30;;;;;;5019480;28;20483;-69
2023/09/11 04:17:11;;;;;;;34.53;31.33;;;20.10;92.20;;;;;;5040940;28;20041;-69
2023/09/11 04:19:40;;;;;;;32.47;29.33;;;20.20;92.20;;;;;;5022302;28;20234;-69
2023/09/11 04:22:06;;;;;;;37.33;33.80;;;20.20;92.20;;;;;;5072911;28;20114;-69
2023/09/11 04:24:32;;;;;;;36.03;32.60;;;20.10;92.20;;;;;;5037195;28;20419;-69
2023/09/11 04:26:58;;;;;;;36.20;32.57;;;20.10;92.30;;;;;;5045286;28;20048;-69
2023/09/11 04:29:24;;;;;;;36.17;32.53;;;20.10;92.30;;;;;;5041281;28;20045;-69
2023/09/11 04:31:50;;;;;;;29.40;25.17;;;20.10;92.40;;;;;;5041308;28;20069;-70
2023/09/11 04:34:16;;;;;;;33.70;24.27;;;20.00;92.30;;;;;;5041539;28;20095;-69
2023/09/11 04:36:42;;;;;;;29.03;26.03;;;20.00;92.30;;;;;;5041806;28;20029;-69
2023/09/11 04:39:08;;;;;;;35.87;32.47;;;19.90;92.40;;;;;;5037964;28;20538;-69
2023/09/11 04:41:34;;;;;;;37.63;33.97;;;19.90;92.50;;;;;;5040346;28;20141;-69
2023/09/11 04:43:59;;;;;;;29.30;23.90;;;19.90;92.50;;;;;;5033820;28;20516;-69
2023/09/11 04:46:25;;;;;;;32.00;24.20;;;19.90;92.70;;;;;;5023820;28;20040;-69
2023/09/11 04:48:51;;;;;;;56.37;51.47;;;19.80;92.60;;;;;;5042581;28;20051;-70
2023/09/11 04:51:18;;;;;;;53.10;48.90;;;19.80;92.50;;;;;;5039432;28;20112;-69
2023/09/11 04:53:43;;;;;;;49.97;45.87;;;19.80;92.60;;;;;;5042297;28;20469;-69
2023/09/11 04:56:09;;;;;;;53.33;48.87;;;19.80;92.70;;;;;;5043197;28;20127;-69
2023/09/11 04:58:35;;;;;;;53.47;49.07;;;19.70;92.70;;;;;;5064784;28;20041;-70
2023/09/11 05:01:02;;;;;;;50.73;46.50;;;19.70;92.70;;;;;;5038207;28;20037;-70
2023/09/11 05:03:28;;;;;;;54.87;50.00;;;19.70;92.70;;;;;;5070494;28;20065;-70
2023/09/11 05:05:54;;;;;;;50.80;46.43;;;19.70;92.80;;;;;;5039493;28;20076;-70
2023/09/11 05:08:20;;;;;;;54.30;49.80;;;19.70;93.10;;;;;;5040693;28;20087;-70
2023/09/11 05:10:46;;;;;;;50.17;45.87;;;19.70;93.10;;;;;;5040982;28;20043;-70
2023/09/11 05:13:11;;;;;;;53.23;49.30;;;19.70;93.00;;;;;;5069984;28;20037;-70
2023/09/11 05:15:37;;;;;;;61.37;56.30;;;19.70;92.80;;;;;;5043152;28;20037;-70
2023/09/11 05:18:03;;;;;;;48.97;44.90;;;19.70;93.00;;;;;;5053590;28;20025;-70
2023/09/11 05:20:30;;;;;;;52.13;47.97;;;19.70;93.10;;;;;;5039814;28;20049;-69
2023/09/11 05:22:56;;;;;;;55.37;50.97;;;19.70;92.90;;;;;;5026312;28;20045;-70
2023/09/11 05:25:22;;;;;;;55.40;51.07;;;19.80;92.90;;;;;;5046867;28;20053;-70
2023/09/11 05:27:48;;;;;;;50.80;46.37;;;19.80;92.80;;;;;;5048338;28;20056;-70
2023/09/11 05:30:14;;;;;;;51.60;47.20;;;19.80;92.90;;;;;;5049913;28;20076;-70
2023/09/11 05:32:40;;;;;;;50.67;46.37;;;19.90;93.00;;;;;;5045981;28;20044;-70
2023/09/11 05:35:06;;;;;;;50.63;46.73;;;19.90;92.90;;;;;;5037422;28;20076;-71
2023/09/11 05:37:32;;;;;;;51.27;46.93;;;20.00;92.60;;;;;;5050088;28;20029;-70
2023/09/11 05:39:58;;;;;;;48.77;44.77;;;20.00;92.50;;;;;;5039944;28;20043;-70
2023/09/11 05:42:24;;;;;;;44.23;40.50;;;20.10;92.50;;;;;;5028775;28;20087;-70
2023/09/11 05:44:50;;;;;;;40.30;36.60;;;20.20;92.30;;;;;;5040087;28;20096;-70
2023/09/11 05:47:16;;;;;;;40.20;36.27;;;20.20;92.30;;;;;;5034151;28;20045;-70
2023/09/11 05:49:42;;;;;;;40.53;36.37;;;20.30;92.20;;;;;;5039106;28;20041;-70
2023/09/11 05:52:07;;;;;;;38.60;34.97;;;20.40;92.20;;;;;;5036077;28;20401;-70
2023/09/11 05:54:34;;;;;;;39.80;35.80;;;20.50;92.10;;;;;;5040654;28;20040;-70
2023/09/11 05:57:03;;;;;;;37.70;34.03;;;20.50;91.60;;;;;;5034483;28;20092;-70
2023/09/11 05:59:29;;;;;;;37.50;33.80;;;20.60;91.50;;;;;;5022062;28;20104;-70
2023/09/11 06:01:54;;;;;;;40.17;36.50;;;20.70;91.30;;;;;;5034508;28;20405;-70
2023/09/11 06:04:20;;;;;;;40.33;36.43;;;20.70;91.30;;;;;;5043579;28;20400;-70
2023/09/11 06:06:46;;;;;;;38.17;34.47;;;20.80;91.20;;;;;;5041777;28;20556;-70
2023/09/11 06:09:11;;;;;;;43.10;39.27;;;20.80;91.00;;;;;;5039574;28;20052;-70
2023/09/11 06:11:37;;;;;;;37.87;34.37;;;20.80;91.00;;;;;;5035046;28;20068;-70
2023/09/11 06:14:05;;;;;;;42.20;38.13;;;20.90;90.90;;;;;;5043818;28;20067;-71
2023/09/11 06:16:31;;;;;;;40.37;36.33;;;20.90;90.90;;;;;;5035483;28;20126;-70
2023/09/11 06:18:58;;;;;;;37.10;33.57;;;20.90;90.80;;;;;;5038409;28;20120;-70
2023/09/11 06:21:24;;;;;;;39.27;35.70;;;21.00;90.70;;;;;;5041054;28;20040;-70
2023/09/11 06:23:50;;;;;;;47.43;42.57;;;21.00;90.60;;;;;;5048681;28;20097;-70
2023/09/11 06:26:16;;;;;;;47.33;43.07;;;21.10;90.60;;;;;;5047750;28;20060;-70
2023/09/11 06:28:42;;;;;;;48.90;44.50;;;21.10;90.50;;;;;;5041069;28;20045;-70
2023/09/11 06:31:09;;;;;;;46.90;42.63;;;21.20;90.40;;;;;;5046788;28;20049;-70
2023/09/11 06:33:35;;;;;;;47.47;43.20;;;21.20;90.30;;;;;;5058294;28;20041;-70
2023/09/11 06:36:01;;;;;;;47.83;44.03;;;21.20;90.10;;;;;;5019624;28;20107;-71
2023/09/11 06:38:26;;;;;;;49.63;45.33;;;21.30;90.00;;;;;;5022968;28;20079;-70
2023/09/11 06:40:52;;;;;;;50.93;46.23;;;21.40;90.00;;;;;;5047397;28;20037;-70
2023/09/11 06:43:18;;;;;;;51.20;46.87;;;21.50;89.90;;;;;;5041022;28;20053;-70
2023/09/11 06:45:44;;;;;;;49.50;45.07;;;21.60;89.80;;;;;;5036054;28;20091;-70
2023/09/11 06:48:11;;;;;;;60.97;55.70;;;21.60;89.40;;;;;;5038626;28;20049;-70
2023/09/11 06:50:38;;;;;;;45.73;41.63;;;21.70;89.20;;;;;;5019450;28;20103;-70
2023/09/11 06:53:07;;;;;;;43.33;39.20;;;21.80;89.00;;;;;;5042828;28;20448;-70
2023/09/11 06:55:33;;;;;;;53.57;49.13;;;21.90;88.70;;;;;;5029866;28;20068;-70
2023/09/11 06:58:01;;;;;;;55.53;51.17;;;21.90;88.50;;;;;;5044017;28;20460;-70
2023/09/11 07:00:27;;;;;;;52.37;48.00;;;21.90;88.40;;;;;;5079668;28;20475;-70
2023/09/11 07:02:54;;;;;;;53.33;48.63;;;21.90;88.30;;;;;;5044994;28;20048;-70
2023/09/11 07:05:20;;;;;;;48.70;44.37;;;22.00;88.40;;;;;;5046404;28;20069;-70
2023/09/11 07:07:47;;;;;;;51.50;47.17;;;22.10;88.40;;;;;;5028738;28;20041;-70
2023/09/11 07:10:17;;;;;;;44.93;40.37;;;22.10;88.30;;;;;;5047381;28;20552;-70
2023/09/11 07:12:44;;;;;;;54.70;50.37;;;22.20;88.20;;;;;;5033054;28;20055;-70
2023/09/11 07:15:10;;;;;;;50.80;46.17;;;22.20;88.00;;;;;;5028752;28;20106;-70
2023/09/11 07:17:36;;;;;;;54.53;50.03;;;22.20;87.70;;;;;;5044883;28;20045;-70
2023/09/11 07:20:04;;;;;;;57.13;52.27;;;22.20;87.40;;;;;;5036207;28;20045;-70
2023/09/11 07:22:30;;;;;;;50.00;45.37;;;22.30;87.30;;;;;;5045119;28;20511;-70
2023/09/11 07:24:56;;;;;;;51.97;47.57;;;22.30;87.20;;;;;;5029893;28;20132;-70
2023/09/11 07:27:22;;;;;;;54.47;49.50;;;22.40;87.00;;;;;;5038850;28;20081;-70
2023/09/11 07:29:51;;;;;;;59.83;54.73;;;22.40;87.00;;;;;;5028476;28;20140;-70
2023/09/11 07:32:16;;;;;;;56.60;51.37;;;22.50;86.80;;;;;;5069216;28;20048;-70
2023/09/11 07:34:42;;;;;;;64.03;58.43;;;22.60;86.70;;;;;;5042913;28;20038;-70
2023/09/11 07:37:08;;;;;;;61.77;56.33;;;22.70;86.60;;;;;;5022254;28;20047;-70
2023/09/11 07:39:34;;;;;;;59.20;53.80;;;22.80;86.40;;;;;;5045896;28;20505;-70
2023/09/11 07:41:59;;;;;;;66.07;59.93;;;22.80;86.30;;;;;;5043835;28;20063;-71
2023/09/11 07:44:25;;;;;;;60.93;55.23;;;23.00;86.20;;;;;;5018471;28;20046;-71
2023/09/11 07:46:51;;;;;;;61.70;56.00;;;23.10;85.90;;;;;;5025613;28;20045;-71
2023/09/11 07:49:16;;;;;;;64.27;58.23;;;23.20;85.80;;;;;;5038015;28;20040;-71
2023/09/11 07:51:42;;;;;;;60.77;54.80;;;23.30;85.70;;;;;;5040223;28;20033;-71
2023/09/11 07:54:08;;;;;;;61.63;55.43;;;23.40;85.00;;;;;;5043298;28;20076;-71
2023/09/11 07:56:34;;;;;;;66.00;59.17;;;23.50;84.80;;;;;;5029214;28;20508;-71
2023/09/11 07:59:01;;;;;;;64.13;57.30;;;23.60;83.60;;;;;;5037184;28;20048;-71
2023/09/11 08:01:27;;;;;;;59.10;53.23;;;23.80;83.70;;;;;;5041410;28;20052;-71
2023/09/11 08:03:53;;;;;;;57.20;52.10;;;23.90;83.40;;;;;;5033652;28;20041;-70
2023/09/11 08:06:22;;;;;;;50.43;46.20;;;24.00;81.70;;;;;;5024116;28;20515;-70
2023/09/11 08:08:48;;;;;;;52.80;48.37;;;24.10;82.20;;;;;;5041998;28;20053;-69
2023/09/11 08:11:19;;;;;;;44.93;41.53;;;24.20;81.50;;;;;;5046117;28;20032;-75
2023/09/11 08:13:46;;;;;;;48.67;44.63;;;24.20;81.10;;;;;;5042325;28;20129;-69
2023/09/11 08:16:16;;;;;;;47.70;43.90;;;24.30;80.70;;;;;;5043027;28;20037;-69
2023/09/11 08:18:42;;;;;;;48.33;44.27;;;24.40;80.10;;;;;;5043272;28;20048;-69
2023/09/11 08:21:09;;;;;;;44.40;41.20;;;24.50;80.00;;;;;;5040243;28;20508;-69
2023/09/11 08:23:35;;;;;;;47.17;43.33;;;24.50;79.70;;;;;;5030530;28;20045;-69
2023/09/11 08:26:01;;;;;;;49.97;46.13;;;24.60;79.70;;;;;;5024926;28;20041;-69
2023/09/11 08:28:28;;;;;;;47.90;44.27;;;24.70;79.00;;;;;;5055555;28;20049;-70
2023/09/11 08:30:54;;;;;;;46.07;42.67;;;24.70;78.70;;;;;;5035819;28;20071;-70
2023/09/11 08:33:22;;;;;;;44.83;41.30;;;24.80;78.60;;;;;;5067706;28;20045;-70
2023/09/11 08:35:48;;;;;;;47.37;43.27;;;24.80;78.20;;;;;;5036305;28;20076;-71
2023/09/11 08:38:17;;;;;;;44.93;41.43;;;24.90;78.10;;;;;;5022577;28;20068;-70
2023/09/11 08:40:44;;;;;;;46.37;42.50;;;24.90;78.10;;;;;;5040346;28;20479;-70
2023/09/11 08:43:10;;;;;;;48.93;45.23;;;25.00;78.10;;;;;;5042982;28;20492;-70
2023/09/11 08:45:37;;;;;;;46.43;42.63;;;25.10;78.20;;;;;;5036866;28;20060;-70
2023/09/11 08:48:09;;;;;;;46.53;42.97;;;25.10;77.70;;;;;;5054847;28;20458;-70
2023/09/11 08:50:37;;;;;;;37.30;33.93;;;25.20;77.10;;;;;;5029971;28;20041;-71
2023/09/11 08:53:03;;;;;;;45.67;41.97;;;25.20;76.80;;;;;;5042302;28;20029;-71
2023/09/11 08:55:31;;;;;;;47.37;43.63;;;25.20;76.90;;;;;;5039452;28;20144;-71
2023/09/11 08:58:02;;;;;;;57.30;53.03;;;25.20;77.10;;;;;;5042631;28;20094;-71
2023/09/11 09:00:28;;;;;;;43.57;40.03;;;25.30;77.30;;;;;;5037297;28;20099;-71
2023/09/11 09:02:54;;;;;;;48.23;44.17;;;25.30;77.10;;;;;;5027190;28;20041;-71
2023/09/11 09:05:21;;;;;;;48.70;44.60;;;25.40;77.00;;;;;;5020695;28;20045;-71
2023/09/11 09:07:48;;;;;;;49.03;44.90;;;25.50;76.80;;;;;;5041917;28;20056;-71
2023/09/11 09:10:15;;;;;;;83.50;77.53;;;25.50;76.20;;;;;;5021428;28;20535;-71
2023/09/11 09:12:42;;;;;;;65.00;60.20;;;25.60;75.60;;;;;;5055954;28;20132;-71
2023/09/11 09:15:09;;;;;;;58.50;53.97;;;25.50;75.90;;;;;;5030861;28;20055;-71
2023/09/11 09:17:35;;;;;;;48.50;44.47;;;25.60;76.40;;;;;;5026056;28;20481;-71
2023/09/11 09:20:01;;;;;;;55.67;51.17;;;25.60;76.50;;;;;;5018236;28;20045;-71
2023/09/11 09:22:26;;;;;;;66.57;61.63;;;25.70;75.80;;;;;;5039424;28;20044;-71
2023/09/11 09:24:54;;;;;;;51.83;47.73;;;25.80;74.40;;;;;;5041235;28;20140;-71
2023/09/11 09:27:21;;;;;;;49.90;45.97;;;25.80;75.00;;;;;;5026373;28;20092;-71
2023/09/11 09:29:48;;;;;;;59.83;55.63;;;25.80;73.80;;;;;;5031941;28;20179;-71
2023/09/11 09:32:15;;;;;;;49.87;45.53;;;25.90;74.10;;;;;;5039175;28;20052;-73
2023/09/11 09:34:51;;;;;;;48.33;44.30;;;26.00;73.20;;;;;;5032813;28;20051;-72
2023/09/11 09:37:18;;;;;;;45.20;41.60;;;26.00;73.30;;;;;;5033370;28;20041;-72
2023/09/11 09:39:46;;;;;;;65.83;60.93;;;26.10;73.30;;;;;;5035779;28;20103;-72
2023/09/11 09:42:12;;;;;;;82.93;77.07;;;26.20;72.50;;;;;;5038402;28;20116;-72
2023/09/11 09:44:40;;;;;;;48.40;44.50;;;26.20;72.10;;;;;;5026767;28;20131;-72
2023/09/11 09:47:09;;;;;;;48.40;44.47;;;26.20;72.10;;;;;;5015607;28;20095;-72
2023/09/11 09:49:48;;;;;;;51.60;47.43;;;26.20;72.20;;;;;;5033945;28;20044;-71
2023/09/11 09:52:17;;;;;;;54.43;50.10;;;26.30;72.90;;;;;;5024107;28;20045;-71
2023/09/11 09:54:51;;;;;;;50.63;46.67;;;26.40;72.50;;;;;;5047079;28;20045;-71
2023/09/11 09:57:19;;;;;;;44.43;40.73;;;26.50;72.30;;;;;;5045463;28;20037;-71
2023/09/11 09:59:50;;;;;;;51.30;47.17;;;26.50;72.00;;;;;;5039966;28;20519;-71
2023/09/11 10:02:24;;;;;;;44.03;40.60;;;26.60;71.50;;;;;;5043066;28;20042;-71
2023/09/11 10:04:51;;;;;;;43.95;39.88;;;26.60;71.90;;;;;;5026041;28;20939;-71
2023/09/11 10:07:42;;;;;;;59.40;55.27;;;26.60;71.10;;;;;;5039245;28;20139;-71
2023/09/11 10:10:25;;;;;;;43.37;40.03;;;26.70;70.40;;;;;;5047115;28;20103;-71
2023/09/11 10:13:11;;;;;;;47.47;43.87;;;26.70;70.80;;;;;;5060961;28;20121;-71
2023/09/11 10:15:39;;;;;;;49.83;46.30;;;26.70;70.30;;;;;;5048798;28;20037;-71
2023/09/11 10:18:06;;;;;;;43.60;40.37;;;26.80;70.60;;;;;;5038831;28;20045;-71
2023/09/11 10:20:33;;;;;;;42.87;39.77;;;26.90;69.90;;;;;;5044297;28;20124;-71
2023/09/11 10:23:03;;;;;;;39.50;36.80;;;26.90;68.50;;;;;;5041547;28;20527;-71
2023/09/11 10:25:39;;;;;;;41.60;38.47;;;27.00;68.50;;;;;;5049134;28;20061;-71
2023/09/11 10:28:08;;;;;;;40.53;37.53;;;27.10;68.80;;;;;;5074731;28;20497;-71
2023/09/11 10:30:57;;;;;;;39.63;36.87;;;27.10;68.50;;;;;;5063929;28;20051;-71
2023/09/11 10:33:26;;;;;;;39.50;36.40;;;27.20;67.10;;;;;;5057016;28;20048;-71
2023/09/11 10:35:57;;;;;;;39.87;37.27;;;27.20;68.30;;;;;;5044705;28;20116;-71
2023/09/11 10:38:26;;;;;;;35.73;33.23;;;27.30;68.10;;;;;;5052505;28;20045;-71
2023/09/11 10:40:53;;;;;;;36.63;34.07;;;27.40;67.40;;;;;;5071826;28;20045;-71
2023/09/11 10:43:19;;;;;;;37.47;34.87;;;27.50;66.60;;;;;;5035317;28;20093;-71
2023/09/11 10:45:44;;;;;;;42.03;39.20;;;27.60;66.60;;;;;;5037341;28;20081;-71
2023/09/11 10:48:43;;;;;;;35.23;33.00;;;27.70;65.80;;;;;;5044585;28;20037;-71
2023/09/11 10:51:09;;;;;;;33.80;31.60;;;27.70;62.90;;;;;;5038498;28;20064;-72
2023/09/11 10:53:35;;;;;;;36.77;34.53;;;27.70;65.40;;;;;;5039183;28;20045;-71
2023/09/11 10:56:02;;;;;;;33.13;31.03;;;27.80;65.20;;;;;;5041319;28;20174;-71
2023/09/11 10:58:28;;;;;;;32.93;30.93;;;27.80;64.00;;;;;;5023574;28;20041;-71
2023/09/11 11:00:56;;;;;;;50.10;47.23;;;27.80;62.20;;;;;;5044291;28;20029;-71
2023/09/11 11:03:25;;;;;;;32.37;30.40;;;27.80;61.30;;;;;;5044278;28;20068;-71
2023/09/11 11:05:52;;;;;;;43.73;41.20;;;27.70;61.90;;;;;;5044432;28;20451;-71
2023/09/11 11:08:18;;;;;;;46.17;43.57;;;27.80;62.00;;;;;;5039199;28;20139;-71
2023/09/11 11:10:56;;;;;;;46.57;43.87;;;27.80;62.40;;;;;;5027149;28;20076;-71
2023/09/11 11:13:22;;;;;;;42.87;40.27;;;27.90;62.70;;;;;;5043834;28;20362;-71
2023/09/11 11:15:48;;;;;;;46.90;44.20;;;27.90;61.60;;;;;;5044220;28;20041;-70
2023/09/11 11:18:27;;;;;;;40.10;37.90;;;27.80;61.80;;;;;;5051801;28;20100;-71
2023/09/11 11:20:59;;;;;;;51.90;49.03;;;27.90;60.60;;;;;;5048309;28;20033;-71
2023/09/11 11:23:26;;;;;;;43.43;40.83;;;27.90;59.40;;;;;;5052525;28;20122;-71
2023/09/11 11:25:52;;;;;;;48.63;46.07;;;27.90;61.10;;;;;;5047642;28;20055;-71
2023/09/11 11:28:22;;;;;;;39.57;37.47;;;28.00;60.80;;;;;;5048180;28;20048;-71
2023/09/11 11:30:52;;;;;;;43.67;41.17;;;28.00;60.50;;;;;;5043325;28;20040;-71
2023/09/11 11:33:23;;;;;;;43.87;41.53;;;28.00;60.50;;;;;;5043969;28;20079;-71
2023/09/11 11:35:50;;;;;;;40.20;37.90;;;27.90;60.30;;;;;;5036506;28;20110;-71
2023/09/11 11:38:19;;;;;;;50.50;47.37;;;27.90;61.00;;;;;;5025025;28;20036;-71
2023/09/11 11:40:47;;;;;;;47.40;44.73;;;27.80;61.20;;;;;;5059186;28;20501;-71
2023/09/11 11:43:14;;;;;;;40.50;38.10;;;27.80;61.00;;;;;;5042318;28;20033;-72
2023/09/11 11:45:46;;;;;;;67.53;63.57;;;27.80;62.10;;;;;;5036767;28;20048;-71
2023/09/11 11:48:14;;;;;;;38.83;36.23;;;27.90;63.60;;;;;;5039962;28;20132;-71
2023/09/11 11:50:44;;;;;;;41.53;38.97;;;27.90;64.10;;;;;;5021710;28;20473;-71
2023/09/11 11:53:21;;;;;;;47.63;44.43;;;27.90;64.00;;;;;;5041501;28;20037;-71
2023/09/11 11:55:47;;;;;;;40.63;38.03;;;27.90;64.10;;;;;;5038481;28;20130;-71
2023/09/11 11:58:14;;;;;;;44.70;41.70;;;27.80;64.40;;;;;;5023358;28;20084;-71
2023/09/11 12:00:41;;;;;;;41.17;38.27;;;27.70;65.30;;;;;;5050740;28;20045;-71
2023/09/11 12:03:08;;;;;;;45.00;41.97;;;27.70;64.60;;;;;;5042169;28;20074;-71
2023/09/11 12:05:36;;;;;;;41.47;38.80;;;27.70;64.20;;;;;;5043906;28;20054;-71
2023/09/11 12:08:03;;;;;;;41.90;39.27;;;27.50;65.40;;;;;;5031576;28;20132;-71
2023/09/11 12:10:29;;;;;;;55.10;51.77;;;27.50;65.70;;;;;;5064519;28;20095;-71
2023/09/11 12:12:55;;;;;;;50.13;46.83;;;27.50;65.40;;;;;;5040963;28;20067;-71
2023/09/11 12:15:21;;;;;;;51.13;47.70;;;27.50;65.90;;;;;;5023650;28;20045;-71
2023/09/11 12:17:49;;;;;;;42.63;39.83;;;27.50;66.00;;;;;;5050357;28;20529;-71
2023/09/11 12:20:15;;;;;;;49.27;45.93;;;27.50;66.20;;;;;;5023408;28;20136;-71
2023/09/11 12:22:45;;;;;;;42.57;39.57;;;27.50;66.70;;;;;;5022965;28;20132;-71
2023/09/11 12:25:13;;;;;;;43.67;40.50;;;27.30;66.90;;;;;;5037647;28;20127;-71
2023/09/11 12:27:39;;;;;;;45.43;42.40;;;27.10;67.20;;;;;;5037668;28;20049;-71
2023/09/11 12:30:06;;;;;;;44.37;41.30;;;27.10;67.40;;;;;;5025240;28;20048;-71